Wetterdaten: aktuell Donnerstag, 03.09.2026 12:05
Datum Zeit Temp. A. Feuchte A. Luftdruck Regen Wind Richtung Richtung Taupunkt Windchill Windböen
03.09.2026 12:05 21,9 °C 69 % 1019,0 hPa 0,0 mm 11,6 km/h (2 Bft) W 259 ° 15,9 °C 20,3 °C 20,9 km/h (4 Bft)
03.09.2026 12:00 22,1 °C 68 % 1019,1 hPa 0,0 mm 11,2 km/h (2 Bft) W 260 ° 15,9 °C 20,6 °C 20,9 km/h (4 Bft)
03.09.2026 11:55 22,1 °C 69 % 1019,1 hPa 0,0 mm 10,3 km/h (2 Bft) W-SW 255 ° 16,1 °C 20,9 °C 20,9 km/h (4 Bft)
03.09.2026 11:50 22,1 °C 67 % 1019,1 hPa 0,0 mm 11,1 km/h (2 Bft) S-SW 212 ° 15,7 °C 20,7 °C 22,5 km/h (4 Bft)
03.09.2026 11:45 22,2 °C 67 % 1019,1 hPa 0,0 mm 8,9 km/h (2 Bft) SW 215 ° 15,8 °C 21,4 °C 19,3 km/h (3 Bft)
03.09.2026 11:40 22,2 °C 67 % 1019,1 hPa 0,0 mm 12,5 km/h (3 Bft) W-SW 252 ° 15,8 °C 20,4 °C 27,4 km/h (4 Bft)
03.09.2026 11:35 22,3 °C 67 % 1019,2 hPa 0,0 mm 9,8 km/h (2 Bft) W-NW 296 ° 15,9 °C 21,2 °C 20,9 km/h (4 Bft)
03.09.2026 11:30 21,9 °C 67 % 1019,1 hPa 0,0 mm 12,3 km/h (3 Bft) W 268 ° 15,5 °C 20,1 °C 24,1 km/h (4 Bft)
03.09.2026 11:25 21,6 °C 68 % 1019,2 hPa 0,0 mm 12,2 km/h (2 Bft) W 278 ° 15,4 °C 19,8 °C 20,9 km/h (4 Bft)
03.09.2026 11:20 21,4 °C 68 % 1019,2 hPa 0,0 mm 9,7 km/h (2 Bft) W-SW 254 ° 15,2 °C 20,3 °C 17,7 km/h (3 Bft)
03.09.2026 11:15 21,4 °C 67 % 1019,1 hPa 0,0 mm 9,7 km/h (2 Bft) W-SW 240 ° 15,0 °C 20,3 °C 17,7 km/h (3 Bft)
03.09.2026 11:10 21,4 °C 67 % 1019,2 hPa 0,0 mm 9,7 km/h (2 Bft) W 279 ° 15,0 °C 20,3 °C 19,3 km/h (3 Bft)
03.09.2026 11:05 21,4 °C 67 % 1019,2 hPa 0,0 mm 10,0 km/h (2 Bft) W 272 ° 15,0 °C 20,2 °C 17,7 km/h (3 Bft)
03.09.2026 11:00 21,3 °C 66 % 1019,1 hPa 0,0 mm 10,8 km/h (2 Bft) W 278 ° 14,7 °C 19,8 °C 20,9 km/h (4 Bft)
03.09.2026 10:55 21,3 °C 67 % 1019,1 hPa 0,0 mm 10,1 km/h (2 Bft) W 271 ° 14,9 °C 20,0 °C 19,3 km/h (3 Bft)
03.09.2026 10:50 21,3 °C 67 % 1019,0 hPa 0,0 mm 7,4 km/h (2 Bft) W 259 ° 14,9 °C 20,9 °C 14,5 km/h (3 Bft)
03.09.2026 10:45 21,1 °C 67 % 1019,0 hPa 0,0 mm 7,9 km/h (2 Bft) W-SW 245 ° 14,7 °C 20,5 °C 17,7 km/h (3 Bft)
03.09.2026 10:40 20,8 °C 69 % 1018,9 hPa 0,0 mm 5,0 km/h (1 Bft) W 268 ° 14,9 °C 20,8 °C 12,9 km/h (3 Bft)
03.09.2026 10:35 20,6 °C 68 % 1019,0 hPa 0,0 mm 5,8 km/h (2 Bft) W 267 ° 14,5 °C 20,6 °C 14,5 km/h (3 Bft)
03.09.2026 10:30 20,5 °C 69 % 1018,9 hPa 0,0 mm 3,4 km/h (1 Bft) SW 236 ° 14,6 °C 20,5 °C 11,3 km/h (2 Bft)
03.09.2026 10:25 20,3 °C 68 % 1019,0 hPa 0,0 mm 6,4 km/h (2 Bft) W 264 ° 14,2 °C 20,3 °C 11,3 km/h (2 Bft)
03.09.2026 10:20 20,2 °C 68 % 1019,0 hPa 0,0 mm 6,6 km/h (2 Bft) W 272 ° 14,1 °C 20,1 °C 12,9 km/h (3 Bft)
03.09.2026 10:15 20,2 °C 69 % 1019,0 hPa 0,0 mm 3,3 km/h (1 Bft) SW 236 ° 14,3 °C 20,2 °C 8,0 km/h (2 Bft)
03.09.2026 10:10 20,0 °C 68 % 1019,2 hPa 0,0 mm 4,3 km/h (1 Bft) W-SW 238 ° 13,9 °C 20,0 °C 12,9 km/h (3 Bft)
03.09.2026 10:05 19,9 °C 68 % 1019,0 hPa 0,0 mm 3,4 km/h (1 Bft) W-NW 289 ° 13,8 °C 19,9 °C 8,0 km/h (2 Bft)
03.09.2026 10:00 19,8 °C 68 % 1019,2 hPa 0,0 mm 3,9 km/h (1 Bft) W-SW 239 ° 13,7 °C 19,8 °C 9,7 km/h (2 Bft)
03.09.2026 09:55 19,7 °C 67 % 1019,1 hPa 0,0 mm 5,1 km/h (1 Bft) W 269 ° 13,4 °C 19,7 °C 11,3 km/h (2 Bft)
03.09.2026 09:50 19,6 °C 68 % 1019,1 hPa 0,0 mm 3,8 km/h (1 Bft) W-SW 248 ° 13,5 °C 19,6 °C 11,3 km/h (2 Bft)
03.09.2026 09:45 19,5 °C 68 % 1019,1 hPa 0,0 mm 4,9 km/h (1 Bft) SW 232 ° 13,4 °C 19,5 °C 9,7 km/h (2 Bft)
03.09.2026 09:40 19,4 °C 68 % 1019,2 hPa 0,0 mm 3,1 km/h (1 Bft) SW 224 ° 13,3 °C 19,4 °C 9,7 km/h (2 Bft)
03.09.2026 09:35 19,4 °C 67 % 1019,1 hPa 0,0 mm 5,5 km/h (1 Bft) W-SW 238 ° 13,1 °C 19,4 °C 12,9 km/h (3 Bft)
03.09.2026 09:30 19,3 °C 67 % 1019,1 hPa 0,0 mm 4,9 km/h (1 Bft) W-SW 245 ° 13,0 °C 19,3 °C 12,9 km/h (3 Bft)
03.09.2026 09:25 19,3 °C 68 % 1019,1 hPa 0,0 mm 4,2 km/h (1 Bft) SW 232 ° 13,2 °C 19,3 °C 11,3 km/h (2 Bft)
03.09.2026 09:20 19,2 °C 67 % 1019,1 hPa 0,0 mm 5,4 km/h (1 Bft) SW 236 ° 12,9 °C 19,2 °C 14,5 km/h (3 Bft)
03.09.2026 09:15 19,1 °C 68 % 1019,2 hPa 0,0 mm 3,5 km/h (1 Bft) W-SW 240 ° 13,1 °C 19,1 °C 8,0 km/h (2 Bft)
03.09.2026 09:10 19,0 °C 68 % 1019,2 hPa 0,0 mm 3,7 km/h (1 Bft) W-SW 242 ° 13,0 °C 19,0 °C 8,0 km/h (2 Bft)
03.09.2026 09:05 19,0 °C 67 % 1019,3 hPa 0,0 mm 4,7 km/h (1 Bft) W-SW 242 ° 12,7 °C 19,0 °C 12,9 km/h (3 Bft)
03.09.2026 09:00 18,9 °C 68 % 1019,4 hPa 0,0 mm 4,2 km/h (1 Bft) SW 218 ° 12,9 °C 18,9 °C 12,9 km/h (3 Bft)
03.09.2026 08:55 18,9 °C 67 % 1019,4 hPa 0,0 mm 4,8 km/h (1 Bft) W-SW 238 ° 12,6 °C 18,9 °C 16,1 km/h (3 Bft)
03.09.2026 08:50 18,9 °C 67 % 1019,4 hPa 0,0 mm 6,3 km/h (2 Bft) W-SW 241 ° 12,6 °C 18,9 °C 12,9 km/h (3 Bft)
03.09.2026 08:45 18,9 °C 66 % 1019,3 hPa 0,0 mm 6,9 km/h (2 Bft) W-SW 246 ° 12,4 °C 18,7 °C 16,1 km/h (3 Bft)
03.09.2026 08:40 19,0 °C 66 % 1019,4 hPa 0,0 mm 8,0 km/h (2 Bft) W-NW 290 ° 12,5 °C 18,3 °C 22,5 km/h (4 Bft)
03.09.2026 08:35 18,9 °C 66 % 1019,4 hPa 0,0 mm 6,5 km/h (2 Bft) W-SW 242 ° 12,4 °C 18,9 °C 17,7 km/h (3 Bft)
03.09.2026 08:30 18,9 °C 67 % 1019,3 hPa 0,0 mm 7,7 km/h (2 Bft) W-SW 238 ° 12,6 °C 18,3 °C 22,5 km/h (4 Bft)
03.09.2026 08:25 18,8 °C 67 % 1019,2 hPa 0,0 mm 7,5 km/h (2 Bft) SW 232 ° 12,5 °C 18,3 °C 17,7 km/h (3 Bft)
03.09.2026 08:20 18,7 °C 67 % 1019,1 hPa 0,0 mm 6,2 km/h (2 Bft) SW 227 ° 12,4 °C 18,7 °C 17,7 km/h (3 Bft)
03.09.2026 08:15 18,6 °C 67 % 1019,2 hPa 0,0 mm 4,9 km/h (1 Bft) W-SW 238 ° 12,3 °C 18,6 °C 11,3 km/h (2 Bft)
03.09.2026 08:10 18,4 °C 68 % 1019,2 hPa 0,0 mm 6,0 km/h (2 Bft) SW 223 ° 12,4 °C 18,4 °C 17,7 km/h (3 Bft)
03.09.2026 08:05 18,2 °C 68 % 1019,2 hPa 0,0 mm 6,1 km/h (2 Bft) W-SW 254 ° 12,2 °C 18,2 °C 16,1 km/h (3 Bft)
03.09.2026 08:00 18,2 °C 68 % 1019,1 hPa 0,0 mm 6,5 km/h (2 Bft) SW 221 ° 12,2 °C 18,2 °C 12,9 km/h (3 Bft)
03.09.2026 07:55 18,2 °C 68 % 1019,0 hPa 0,0 mm 6,0 km/h (2 Bft) SW 220 ° 12,2 °C 18,2 °C 11,3 km/h (2 Bft)
03.09.2026 07:50 18,2 °C 67 % 1019,0 hPa 0,0 mm 7,9 km/h (2 Bft) SW 221 ° 12,0 °C 17,5 °C 17,7 km/h (3 Bft)
03.09.2026 07:45 18,2 °C 67 % 1019,0 hPa 0,0 mm 5,9 km/h (2 Bft) SW 223 ° 12,0 °C 18,2 °C 12,9 km/h (3 Bft)
03.09.2026 07:40 18,2 °C 67 % 1019,2 hPa 0,0 mm 5,7 km/h (1 Bft) S-SW 200 ° 12,0 °C 18,2 °C 17,7 km/h (3 Bft)
03.09.2026 07:35 18,2 °C 68 % 1019,2 hPa 0,0 mm 4,9 km/h (1 Bft) SW 228 ° 12,2 °C 18,2 °C 12,9 km/h (3 Bft)
03.09.2026 07:30 18,1 °C 68 % 1019,1 hPa 0,0 mm 4,2 km/h (1 Bft) S-SW 200 ° 12,1 °C 18,1 °C 9,7 km/h (2 Bft)
03.09.2026 07:25 18,0 °C 68 % 1019,2 hPa 0,0 mm 5,1 km/h (1 Bft) S-SW 205 ° 12,0 °C 18,0 °C 12,9 km/h (3 Bft)
03.09.2026 07:20 17,8 °C 68 % 1019,3 hPa 0,0 mm 4,1 km/h (1 Bft) S-SW 210 ° 11,8 °C 17,8 °C 12,9 km/h (3 Bft)
03.09.2026 07:15 17,7 °C 69 % 1019,2 hPa 0,0 mm 5,5 km/h (1 Bft) S-SW 209 ° 11,9 °C 17,7 °C 11,3 km/h (2 Bft)
03.09.2026 07:10 17,6 °C 69 % 1019,1 hPa 0,0 mm 3,7 km/h (1 Bft) SW 217 ° 11,8 °C 17,6 °C 8,0 km/h (2 Bft)
03.09.2026 07:05 17,6 °C 69 % 1019,1 hPa 0,0 mm 4,6 km/h (1 Bft) S-SW 203 ° 11,8 °C 17,6 °C 8,0 km/h (2 Bft)
03.09.2026 07:00 17,6 °C 69 % 1019,3 hPa 0,0 mm 5,4 km/h (1 Bft) S-SW 206 ° 11,8 °C 17,6 °C 12,9 km/h (3 Bft)
03.09.2026 06:55 17,6 °C 69 % 1019,4 hPa 0,0 mm 5,9 km/h (2 Bft) S-SW 204 ° 11,8 °C 17,6 °C 14,5 km/h (3 Bft)
03.09.2026 06:50 17,7 °C 69 % 1019,0 hPa 0,0 mm 6,0 km/h (2 Bft) SW 231 ° 11,9 °C 17,7 °C 12,9 km/h (3 Bft)
03.09.2026 06:45 17,7 °C 69 % 1018,9 hPa 0,0 mm 7,6 km/h (2 Bft) SW 225 ° 11,9 °C 17,1 °C 12,9 km/h (3 Bft)
03.09.2026 06:40 17,7 °C 68 % 1019,0 hPa 0,0 mm 6,9 km/h (2 Bft) SW 224 ° 11,7 °C 17,5 °C 14,5 km/h (3 Bft)
03.09.2026 06:35 17,8 °C 68 % 1019,0 hPa 0,0 mm 5,5 km/h (1 Bft) S-SW 196 ° 11,8 °C 17,8 °C 16,1 km/h (3 Bft)
03.09.2026 06:30 18,1 °C 67 % 1018,9 hPa 0,0 mm 4,0 km/h (1 Bft) SW 220 ° 11,9 °C 18,1 °C 8,0 km/h (2 Bft)
03.09.2026 06:25 18,4 °C 67 % 1018,9 hPa 0,0 mm 3,0 km/h (1 Bft) SW 219 ° 12,2 °C 18,4 °C 9,7 km/h (2 Bft)
03.09.2026 06:20 18,6 °C 66 % 1019,1 hPa 0,0 mm 3,9 km/h (1 Bft) S-SW 210 ° 12,1 °C 18,6 °C 8,0 km/h (2 Bft)
03.09.2026 06:15 18,8 °C 65 % 1019,2 hPa 0,0 mm 3,6 km/h (1 Bft) S-SW 211 ° 12,1 °C 18,8 °C 8,0 km/h (2 Bft)
03.09.2026 06:10 18,9 °C 65 % 1019,2 hPa 0,0 mm 2,9 km/h (1 Bft) W-SW 252 ° 12,2 °C 18,9 °C 8,0 km/h (2 Bft)
03.09.2026 06:05 19,0 °C 65 % 1019,4 hPa 0,0 mm 6,0 km/h (2 Bft) W-SW 257 ° 12,3 °C 19,0 °C 14,5 km/h (3 Bft)
03.09.2026 06:00 19,1 °C 65 % 1019,4 hPa 0,0 mm 5,5 km/h (1 Bft) W-SW 248 ° 12,4 °C 19,1 °C 17,7 km/h (3 Bft)
03.09.2026 05:55 19,1 °C 65 % 1019,5 hPa 0,0 mm 5,6 km/h (1 Bft) W-SW 250 ° 12,4 °C 19,1 °C 12,9 km/h (3 Bft)
03.09.2026 05:50 19,0 °C 65 % 1019,6 hPa 0,0 mm 6,1 km/h (2 Bft) W-SW 242 ° 12,3 °C 19,0 °C 17,7 km/h (3 Bft)
03.09.2026 05:45 18,9 °C 66 % 1019,7 hPa 0,0 mm 6,1 km/h (2 Bft) W-SW 242 ° 12,4 °C 18,9 °C 12,9 km/h (3 Bft)
03.09.2026 05:40 18,8 °C 66 % 1019,6 hPa 0,0 mm 6,1 km/h (2 Bft) W-SW 246 ° 12,3 °C 18,8 °C 14,5 km/h (3 Bft)
03.09.2026 05:35 18,7 °C 67 % 1019,6 hPa 0,0 mm 5,6 km/h (1 Bft) W-SW 247 ° 12,4 °C 18,7 °C 14,5 km/h (3 Bft)
03.09.2026 05:30 18,5 °C 67 % 1019,7 hPa 0,0 mm 4,3 km/h (1 Bft) W 259 ° 12,3 °C 18,5 °C 12,9 km/h (3 Bft)
03.09.2026 05:25 18,3 °C 68 % 1019,7 hPa 0,0 mm 4,9 km/h (1 Bft) W-SW 238 ° 12,3 °C 18,3 °C 16,1 km/h (3 Bft)
03.09.2026 05:20 18,0 °C 69 % 1019,7 hPa 0,0 mm 3,0 km/h (1 Bft) SW 217 ° 12,2 °C 18,0 °C 8,0 km/h (2 Bft)
03.09.2026 05:15 17,8 °C 70 % 1019,6 hPa 0,0 mm 1,4 km/h (1 Bft) SW 215 ° 12,3 °C 17,8 °C 8,0 km/h (2 Bft)
03.09.2026 05:10 17,8 °C 70 % 1019,7 hPa 0,0 mm 1,5 km/h (1 Bft) SW 216 ° 12,3 °C 17,8 °C 6,4 km/h (2 Bft)
03.09.2026 05:05 17,8 °C 70 % 1019,7 hPa 0,0 mm 1,6 km/h (1 Bft) SW 217 ° 12,3 °C 17,8 °C 6,4 km/h (2 Bft)
03.09.2026 05:00 17,8 °C 70 % 1019,7 hPa 0,0 mm 1,5 km/h (1 Bft) SW 217 ° 12,3 °C 17,8 °C 4,8 km/h (1 Bft)
03.09.2026 04:55 17,8 °C 70 % 1019,6 hPa 0,0 mm 2,8 km/h (1 Bft) SW 217 ° 12,3 °C 17,8 °C 6,4 km/h (2 Bft)
03.09.2026 04:50 17,9 °C 70 % 1019,6 hPa 0,0 mm 1,7 km/h (1 Bft) SW 217 ° 12,3 °C 17,9 °C 6,4 km/h (2 Bft)
03.09.2026 04:45 17,9 °C 69 % 1019,6 hPa 0,0 mm 2,6 km/h (1 Bft) SW 221 ° 12,1 °C 17,9 °C 6,4 km/h (2 Bft)
03.09.2026 04:40 18,1 °C 69 % 1019,7 hPa 0,0 mm 2,3 km/h (1 Bft) SW 223 ° 12,3 °C 18,1 °C 6,4 km/h (2 Bft)
03.09.2026 04:35 18,1 °C 69 % 1019,8 hPa 0,0 mm 2,6 km/h (1 Bft) SW 228 ° 12,3 °C 18,1 °C 8,0 km/h (2 Bft)
03.09.2026 04:30 18,0 °C 69 % 1019,8 hPa 0,0 mm 5,3 km/h (1 Bft) SW 232 ° 12,2 °C 18,0 °C 11,3 km/h (2 Bft)
03.09.2026 04:25 17,9 °C 69 % 1019,8 hPa 0,0 mm 3,8 km/h (1 Bft) S-SW 209 ° 12,1 °C 17,9 °C 8,0 km/h (2 Bft)
03.09.2026 04:20 17,9 °C 69 % 1019,9 hPa 0,0 mm 3,7 km/h (1 Bft) S-SW 211 ° 12,1 °C 17,9 °C 8,0 km/h (2 Bft)
03.09.2026 04:15 17,9 °C 69 % 1020,0 hPa 0,0 mm 4,1 km/h (1 Bft) S-SW 211 ° 12,1 °C 17,9 °C 8,0 km/h (2 Bft)
03.09.2026 04:10 17,9 °C 69 % 1020,1 hPa 0,0 mm 2,3 km/h (1 Bft) S-SW 210 ° 12,1 °C 17,9 °C 8,0 km/h (2 Bft)
03.09.2026 04:05 17,9 °C 69 % 1020,1 hPa 0,0 mm 2,1 km/h (1 Bft) S-SW 209 ° 12,1 °C 17,9 °C 6,4 km/h (2 Bft)
03.09.2026 04:00 17,9 °C 69 % 1020,2 hPa 0,0 mm 3,9 km/h (1 Bft) SW 215 ° 12,1 °C 17,9 °C 9,7 km/h (2 Bft)
03.09.2026 03:55 17,8 °C 69 % 1020,1 hPa 0,0 mm 3,5 km/h (1 Bft) SW 219 ° 12,0 °C 17,8 °C 11,3 km/h (2 Bft)
03.09.2026 03:50 17,8 °C 70 % 1020,2 hPa 0,0 mm 3,2 km/h (1 Bft) SW 219 ° 12,3 °C 17,8 °C 9,7 km/h (2 Bft)
03.09.2026 03:45 17,7 °C 70 % 1020,3 hPa 0,0 mm 3,3 km/h (1 Bft) SW 229 ° 12,2 °C 17,7 °C 8,0 km/h (2 Bft)
03.09.2026 03:40 17,7 °C 70 % 1020,1 hPa 0,0 mm 3,9 km/h (1 Bft) W-SW 244 ° 12,2 °C 17,7 °C 11,3 km/h (2 Bft)
03.09.2026 03:35 17,6 °C 70 % 1020,1 hPa 0,0 mm 3,9 km/h (1 Bft) SW 225 ° 12,1 °C 17,6 °C 8,0 km/h (2 Bft)
03.09.2026 03:30 17,4 °C 70 % 1020,1 hPa 0,0 mm 3,0 km/h (1 Bft) SW 229 ° 11,9 °C 17,4 °C 8,0 km/h (2 Bft)
03.09.2026 03:25 17,4 °C 71 % 1020,1 hPa 0,0 mm 2,7 km/h (1 Bft) SW 229 ° 12,1 °C 17,4 °C 9,7 km/h (2 Bft)
03.09.2026 03:20 17,3 °C 71 % 1020,4 hPa 0,0 mm 2,0 km/h (1 Bft) SW 236 ° 12,0 °C 17,3 °C 6,4 km/h (2 Bft)
03.09.2026 03:15 17,3 °C 71 % 1020,4 hPa 0,0 mm 2,6 km/h (1 Bft) SW 236 ° 12,0 °C 17,3 °C 6,4 km/h (2 Bft)
03.09.2026 03:10 17,3 °C 71 % 1020,4 hPa 0,0 mm 2,2 km/h (1 Bft) SW 234 ° 12,0 °C 17,3 °C 8,0 km/h (2 Bft)
03.09.2026 03:05 17,4 °C 71 % 1020,4 hPa 0,0 mm 2,8 km/h (1 Bft) W-SW 241 ° 12,1 °C 17,4 °C 9,7 km/h (2 Bft)
03.09.2026 03:00 17,4 °C 71 % 1020,4 hPa 0,0 mm 2,2 km/h (1 Bft) SW 226 ° 12,1 °C 17,4 °C 8,0 km/h (2 Bft)
03.09.2026 02:55 17,5 °C 71 % 1020,5 hPa 0,0 mm 1,5 km/h (1 Bft) SW 225 ° 12,2 °C 17,5 °C 6,4 km/h (2 Bft)
03.09.2026 02:50 17,6 °C 70 % 1020,5 hPa 0,0 mm 3,7 km/h (1 Bft) SW 227 ° 12,1 °C 17,6 °C 11,3 km/h (2 Bft)
03.09.2026 02:45 17,7 °C 70 % 1020,6 hPa 0,0 mm 2,6 km/h (1 Bft) SW 229 ° 12,2 °C 17,7 °C 6,4 km/h (2 Bft)
03.09.2026 02:40 17,7 °C 70 % 1020,6 hPa 0,0 mm 3,5 km/h (1 Bft) SW 223 ° 12,2 °C 17,7 °C 9,7 km/h (2 Bft)
03.09.2026 02:35 17,8 °C 70 % 1020,5 hPa 0,0 mm 3,3 km/h (1 Bft) W-SW 237 ° 12,3 °C 17,8 °C 8,0 km/h (2 Bft)
03.09.2026 02:30 17,7 °C 71 % 1020,6 hPa 0,0 mm 3,0 km/h (1 Bft) W-SW 237 ° 12,4 °C 17,7 °C 9,7 km/h (2 Bft)
03.09.2026 02:25 17,7 °C 71 % 1020,5 hPa 0,0 mm 0,5 km/h (0 Bft) W-SW 238 ° 12,4 °C 17,7 °C 3,2 km/h (1 Bft)
03.09.2026 02:20 17,6 °C 71 % 1020,7 hPa 0,0 mm 2,3 km/h (1 Bft) W-SW 238 ° 12,3 °C 17,6 °C 6,4 km/h (2 Bft)
03.09.2026 02:15 17,3 °C 72 % 1020,8 hPa 0,0 mm 3,8 km/h (1 Bft) SW 222 ° 12,2 °C 17,3 °C 9,7 km/h (2 Bft)
03.09.2026 02:10 17,1 °C 73 % 1020,8 hPa 0,0 mm 1,9 km/h (1 Bft) W-SW 243 ° 12,2 °C 17,1 °C 6,4 km/h (2 Bft)
03.09.2026 02:05 16,9 °C 73 % 1020,8 hPa 0,0 mm 1,0 km/h (0 Bft) W-SW 244 ° 12,0 °C 16,9 °C 4,8 km/h (1 Bft)
03.09.2026 02:00 16,8 °C 73 % 1020,9 hPa 0,0 mm 1,1 km/h (1 Bft) W-SW 245 ° 11,9 °C 16,8 °C 6,4 km/h (2 Bft)
03.09.2026 01:55 16,6 °C 74 % 1020,9 hPa 0,0 mm 1,2 km/h (1 Bft) W-SW 245 ° 11,9 °C 16,6 °C 6,4 km/h (2 Bft)
03.09.2026 01:50 16,5 °C 74 % 1021,0 hPa 0,0 mm 0,8 km/h (0 Bft) W-NW 288 ° 11,8 °C 16,5 °C 8,0 km/h (2 Bft)
03.09.2026 01:45 16,4 °C 74 % 1021,1 hPa 0,0 mm 0,4 km/h (0 Bft) W-NW 290 ° 11,8 °C 16,4 °C 3,2 km/h (1 Bft)
03.09.2026 01:40 16,4 °C 74 % 1021,1 hPa 0,0 mm 0,0 km/h (0 Bft) W-NW 290 ° 11,8 °C 16,4 °C 1,6 km/h (1 Bft)
03.09.2026 01:35 16,4 °C 74 % 1021,1 hPa 0,0 mm 0,5 km/h (0 Bft) W-NW 290 ° 11,8 °C 16,4 °C 3,2 km/h (1 Bft)
03.09.2026 01:30 16,3 °C 74 % 1021,1 hPa 0,0 mm 1,0 km/h (0 Bft) W-NW 290 ° 11,7 °C 16,3 °C 3,2 km/h (1 Bft)
03.09.2026 01:25 16,3 °C 74 % 1021,2 hPa 0,0 mm 0,0 km/h (0 Bft) W-NW 291 ° 11,7 °C 16,3 °C 1,6 km/h (1 Bft)
03.09.2026 01:20 16,3 °C 74 % 1021,1 hPa 0,0 mm 0,3 km/h (0 Bft) W-NW 291 ° 11,7 °C 16,3 °C 3,2 km/h (1 Bft)
03.09.2026 01:15 16,2 °C 75 % 1021,0 hPa 0,0 mm 1,3 km/h (1 Bft) W-NW 291 ° 11,8 °C 16,2 °C 6,4 km/h (2 Bft)
03.09.2026 01:10 16,1 °C 75 % 1020,9 hPa 0,0 mm 0,5 km/h (0 Bft) W-NW 294 ° 11,7 °C 16,1 °C 4,8 km/h (1 Bft)
03.09.2026 01:05 15,9 °C 75 % 1020,9 hPa 0,0 mm 0,0 km/h (0 Bft) W-NW 294 ° 11,5 °C 15,9 °C 0,0 km/h (0 Bft)
03.09.2026 01:00 15,8 °C 76 % 1021,1 hPa 0,0 mm 0,0 km/h (0 Bft) W-NW 295 ° 11,6 °C 15,8 °C 0,0 km/h (0 Bft)
03.09.2026 00:55 15,9 °C 75 % 1021,1 hPa 0,0 mm 0,0 km/h (0 Bft) W-NW 295 ° 11,5 °C 15,9 °C 0,0 km/h (0 Bft)
03.09.2026 00:50 16,0 °C 75 % 1021,1 hPa 0,0 mm 0,0 km/h (0 Bft) W-NW 295 ° 11,6 °C 16,0 °C 0,0 km/h (0 Bft)
03.09.2026 00:45 16,1 °C 74 % 1021,2 hPa 0,0 mm 0,0 km/h (0 Bft) W-NW 295 ° 11,5 °C 16,1 °C 0,0 km/h (0 Bft)
03.09.2026 00:40 16,2 °C 74 % 1021,2 hPa 0,0 mm 0,0 km/h (0 Bft) W-NW 295 ° 11,6 °C 16,2 °C 0,0 km/h (0 Bft)
03.09.2026 00:35 16,3 °C 74 % 1021,2 hPa 0,0 mm 0,0 km/h (0 Bft) W-NW 295 ° 11,7 °C 16,3 °C 0,0 km/h (0 Bft)
03.09.2026 00:30 16,4 °C 73 % 1021,3 hPa 0,0 mm 0,0 km/h (0 Bft) W-NW 295 ° 11,5 °C 16,4 °C 0,0 km/h (0 Bft)
03.09.2026 00:25 16,4 °C 73 % 1021,3 hPa 0,0 mm 0,0 km/h (0 Bft) W-NW 295 ° 11,5 °C 16,4 °C 0,0 km/h (0 Bft)
03.09.2026 00:20 16,5 °C 73 % 1021,3 hPa 0,0 mm 0,0 km/h (0 Bft) W-NW 295 ° 11,6 °C 16,5 °C 0,0 km/h (0 Bft)
03.09.2026 00:15 16,5 °C 73 % 1021,2 hPa 0,0 mm 0,0 km/h (0 Bft) W-NW 295 ° 11,6 °C 16,5 °C 0,0 km/h (0 Bft)
03.09.2026 00:10 16,5 °C 73 % 1021,4 hPa 0,0 mm 0,0 km/h (0 Bft) W-NW 295 ° 11,6 °C 16,5 °C 0,0 km/h (0 Bft)
03.09.2026 00:05 16,4 °C 73 % 1021,4 hPa 0,0 mm 0,0 km/h (0 Bft) W-NW 295 ° 11,5 °C 16,4 °C 0,0 km/h (0 Bft)
03.09.2026 00:00 16,5 °C 73 % 1021,3 hPa 0,0 mm 0,0 km/h (0 Bft) W-NW 294 ° 11,6 °C 16,5 °C 0,0 km/h (0 Bft)
02.09.2026 23:55 16,5 °C 73 % 1021,3 hPa 0,0 mm 0,0 km/h (0 Bft) W-NW 294 ° 11,6 °C 16,5 °C 0,0 km/h (0 Bft)
02.09.2026 23:50 16,6 °C 72 % 1021,3 hPa 0,0 mm 0,0 km/h (0 Bft) W-NW 295 ° 11,5 °C 16,6 °C 0,0 km/h (0 Bft)
02.09.2026 23:45 16,7 °C 72 % 1021,3 hPa 0,0 mm 0,0 km/h (0 Bft) W-NW 295 ° 11,6 °C 16,7 °C 0,0 km/h (0 Bft)
02.09.2026 23:40 16,7 °C 72 % 1021,4 hPa 0,0 mm 0,0 km/h (0 Bft) W-NW 295 ° 11,6 °C 16,7 °C 0,0 km/h (0 Bft)
02.09.2026 23:35 16,8 °C 72 % 1021,4 hPa 0,0 mm 0,0 km/h (0 Bft) W-NW 295 ° 11,7 °C 16,8 °C 0,0 km/h (0 Bft)
02.09.2026 23:30 16,8 °C 72 % 1021,4 hPa 0,0 mm 0,0 km/h (0 Bft) W-NW 295 ° 11,7 °C 16,8 °C 0,0 km/h (0 Bft)
02.09.2026 23:25 16,8 °C 71 % 1021,4 hPa 0,0 mm 0,0 km/h (0 Bft) W-NW 295 ° 11,5 °C 16,8 °C 0,0 km/h (0 Bft)
02.09.2026 23:20 16,8 °C 71 % 1021,2 hPa 0,0 mm 0,0 km/h (0 Bft) W-NW 295 ° 11,5 °C 16,8 °C 0,0 km/h (0 Bft)
02.09.2026 23:15 16,9 °C 72 % 1021,2 hPa 0,0 mm 0,0 km/h (0 Bft) W-NW 296 ° 11,8 °C 16,9 °C 0,0 km/h (0 Bft)
02.09.2026 23:10 16,9 °C 72 % 1021,2 hPa 0,0 mm 0,0 km/h (0 Bft) W-NW 296 ° 11,8 °C 16,9 °C 0,0 km/h (0 Bft)
02.09.2026 23:05 17,0 °C 71 % 1021,2 hPa 0,0 mm 0,0 km/h (0 Bft) W-NW 296 ° 11,7 °C 17,0 °C 0,0 km/h (0 Bft)
02.09.2026 23:00 17,1 °C 70 % 1021,2 hPa 0,0 mm 0,0 km/h (0 Bft) W-NW 296 ° 11,6 °C 17,1 °C 0,0 km/h (0 Bft)
02.09.2026 22:55 17,1 °C 70 % 1021,3 hPa 0,0 mm 0,0 km/h (0 Bft) W-NW 296 ° 11,6 °C 17,1 °C 0,0 km/h (0 Bft)
02.09.2026 22:50 17,1 °C 70 % 1021,4 hPa 0,0 mm 0,3 km/h (0 Bft) W-NW 296 ° 11,6 °C 17,1 °C 1,6 km/h (1 Bft)
02.09.2026 22:45 17,1 °C 70 % 1021,4 hPa 0,0 mm 1,4 km/h (1 Bft) W-NW 296 ° 11,6 °C 17,1 °C 4,8 km/h (1 Bft)
02.09.2026 22:40 17,2 °C 70 % 1021,3 hPa 0,0 mm 0,1 km/h (0 Bft) W-NW 296 ° 11,7 °C 17,2 °C 3,2 km/h (1 Bft)
02.09.2026 22:35 17,3 °C 70 % 1021,3 hPa 0,0 mm 0,4 km/h (0 Bft) W-NW 296 ° 11,8 °C 17,3 °C 3,2 km/h (1 Bft)
02.09.2026 22:30 17,3 °C 69 % 1021,4 hPa 0,0 mm 0,8 km/h (0 Bft) W-NW 296 ° 11,6 °C 17,3 °C 4,8 km/h (1 Bft)
02.09.2026 22:25 17,4 °C 69 % 1021,4 hPa 0,0 mm 0,4 km/h (0 Bft) W-NW 296 ° 11,7 °C 17,4 °C 4,8 km/h (1 Bft)
02.09.2026 22:20 17,6 °C 70 % 1021,3 hPa 0,0 mm 0,0 km/h (0 Bft) W-NW 296 ° 12,1 °C 17,6 °C 0,0 km/h (0 Bft)
02.09.2026 22:15 17,6 °C 70 % 1021,3 hPa 0,0 mm 0,0 km/h (0 Bft) W-NW 296 ° 12,1 °C 17,6 °C 0,0 km/h (0 Bft)
02.09.2026 22:10 17,7 °C 70 % 1021,3 hPa 0,0 mm 0,0 km/h (0 Bft) W-NW 296 ° 12,2 °C 17,7 °C 0,0 km/h (0 Bft)
02.09.2026 22:05 17,7 °C 70 % 1021,3 hPa 0,0 mm 0,0 km/h (0 Bft) W-NW 293 ° 12,2 °C 17,7 °C 0,0 km/h (0 Bft)
02.09.2026 22:00 17,7 °C 70 % 1021,4 hPa 0,0 mm 0,0 km/h (0 Bft) W-NW 293 ° 12,2 °C 17,7 °C 0,0 km/h (0 Bft)
02.09.2026 21:55 17,6 °C 70 % 1021,4 hPa 0,0 mm 0,0 km/h (0 Bft) W-NW 293 ° 12,1 °C 17,6 °C 0,0 km/h (0 Bft)
02.09.2026 21:50 17,6 °C 70 % 1021,5 hPa 0,0 mm 0,0 km/h (0 Bft) W-NW 293 ° 12,1 °C 17,6 °C 0,0 km/h (0 Bft)
02.09.2026 21:45 17,5 °C 70 % 1021,4 hPa 0,0 mm 0,0 km/h (0 Bft) W-NW 293 ° 12,0 °C 17,5 °C 0,0 km/h (0 Bft)
02.09.2026 21:40 17,4 °C 71 % 1021,5 hPa 0,0 mm 0,0 km/h (0 Bft) W-NW 293 ° 12,1 °C 17,4 °C 0,0 km/h (0 Bft)
02.09.2026 21:35 17,4 °C 72 % 1021,6 hPa 0,0 mm 0,0 km/h (0 Bft) W-NW 293 ° 12,3 °C 17,4 °C 0,0 km/h (0 Bft)
02.09.2026 21:30 17,4 °C 73 % 1021,7 hPa 0,0 mm 0,0 km/h (0 Bft) W-NW 293 ° 12,5 °C 17,4 °C 0,0 km/h (0 Bft)
02.09.2026 21:25 17,4 °C 73 % 1021,6 hPa 0,0 mm 0,0 km/h (0 Bft) W-NW 293 ° 12,5 °C 17,4 °C 0,0 km/h (0 Bft)
02.09.2026 21:20 17,4 °C 74 % 1021,6 hPa 0,0 mm 0,0 km/h (0 Bft) W-NW 293 ° 12,7 °C 17,4 °C 0,0 km/h (0 Bft)
02.09.2026 21:15 17,4 °C 74 % 1021,4 hPa 0,0 mm 0,0 km/h (0 Bft) W-NW 293 ° 12,7 °C 17,4 °C 0,0 km/h (0 Bft)
02.09.2026 21:10 17,6 °C 74 % 1021,4 hPa 0,0 mm 0,0 km/h (0 Bft) W-NW 293 ° 12,9 °C 17,6 °C 0,0 km/h (0 Bft)
02.09.2026 21:05 17,6 °C 74 % 1021,2 hPa 0,0 mm 0,0 km/h (0 Bft) W-NW 293 ° 12,9 °C 17,6 °C 0,0 km/h (0 Bft)
02.09.2026 21:00 17,7 °C 73 % 1021,4 hPa 0,0 mm 0,0 km/h (0 Bft) W-NW 293 ° 12,8 °C 17,7 °C 0,0 km/h (0 Bft)
02.09.2026 20:55 17,9 °C 72 % 1021,3 hPa 0,0 mm 0,0 km/h (0 Bft) W-NW 293 ° 12,8 °C 17,9 °C 0,0 km/h (0 Bft)
02.09.2026 20:50 18,2 °C 72 % 1021,2 hPa 0,0 mm 0,0 km/h (0 Bft) W-NW 293 ° 13,1 °C 18,2 °C 0,0 km/h (0 Bft)
02.09.2026 20:45 18,3 °C 71 % 1021,2 hPa 0,0 mm 0,0 km/h (0 Bft) W-NW 292 ° 12,9 °C 18,3 °C 0,0 km/h (0 Bft)
02.09.2026 20:40 18,4 °C 70 % 1021,2 hPa 0,0 mm 0,0 km/h (0 Bft) W-NW 293 ° 12,8 °C 18,4 °C 0,0 km/h (0 Bft)
02.09.2026 20:35 18,6 °C 70 % 1021,3 hPa 0,0 mm 0,0 km/h (0 Bft) W-NW 293 ° 13,0 °C 18,6 °C 0,0 km/h (0 Bft)
02.09.2026 20:30 18,8 °C 70 % 1021,2 hPa 0,0 mm 0,0 km/h (0 Bft) W-NW 293 ° 13,2 °C 18,8 °C 0,0 km/h (0 Bft)
02.09.2026 20:25 19,0 °C 69 % 1021,1 hPa 0,0 mm 0,0 km/h (0 Bft) W-NW 292 ° 13,2 °C 19,0 °C 0,0 km/h (0 Bft)
02.09.2026 20:20 19,2 °C 68 % 1021,1 hPa 0,0 mm 0,0 km/h (0 Bft) W-NW 292 ° 13,1 °C 19,2 °C 0,0 km/h (0 Bft)
02.09.2026 20:15 19,5 °C 67 % 1021,1 hPa 0,0 mm 0,0 km/h (0 Bft) W-NW 292 ° 13,2 °C 19,5 °C 0,0 km/h (0 Bft)
02.09.2026 20:10 19,7 °C 66 % 1020,9 hPa 0,0 mm 0,0 km/h (0 Bft) W-NW 292 ° 13,2 °C 19,7 °C 0,0 km/h (0 Bft)
02.09.2026 20:05 19,9 °C 64 % 1020,9 hPa 0,0 mm 0,0 km/h (0 Bft) W-NW 292 ° 12,9 °C 19,9 °C 0,0 km/h (0 Bft)
02.09.2026 20:00 20,1 °C 64 % 1020,8 hPa 0,0 mm 0,0 km/h (0 Bft) W-NW 292 ° 13,1 °C 20,1 °C 0,0 km/h (0 Bft)
02.09.2026 19:55 20,3 °C 63 % 1020,6 hPa 0,0 mm 0,4 km/h (0 Bft) W-NW 293 ° 13,0 °C 20,3 °C 3,2 km/h (1 Bft)
02.09.2026 19:50 20,6 °C 62 % 1020,6 hPa 0,0 mm 0,3 km/h (0 Bft) W-NW 293 ° 13,1 °C 20,6 °C 3,2 km/h (1 Bft)
02.09.2026 19:45 20,8 °C 61 % 1020,6 hPa 0,0 mm 0,4 km/h (0 Bft) W-NW 293 ° 13,0 °C 20,8 °C 1,6 km/h (1 Bft)
02.09.2026 19:40 20,9 °C 61 % 1020,6 hPa 0,0 mm 0,0 km/h (0 Bft) W-NW 293 ° 13,1 °C 20,9 °C 0,0 km/h (0 Bft)
02.09.2026 19:35 21,0 °C 61 % 1020,6 hPa 0,0 mm 0,0 km/h (0 Bft) W-NW 293 ° 13,2 °C 21,0 °C 0,0 km/h (0 Bft)
02.09.2026 19:30 21,2 °C 61 % 1020,5 hPa 0,0 mm 0,2 km/h (0 Bft) W-NW 293 ° 13,4 °C 21,2 °C 1,6 km/h (1 Bft)
02.09.2026 19:25 21,5 °C 60 % 1020,5 hPa 0,0 mm 0,7 km/h (0 Bft) W-NW 293 ° 13,4 °C 21,5 °C 4,8 km/h (1 Bft)
02.09.2026 19:20 21,7 °C 59 % 1020,6 hPa 0,0 mm 0,2 km/h (0 Bft) W-NW 293 ° 13,3 °C 21,7 °C 1,6 km/h (1 Bft)
02.09.2026 19:15 21,7 °C 59 % 1020,6 hPa 0,0 mm 0,4 km/h (0 Bft) W-NW 293 ° 13,3 °C 21,7 °C 3,2 km/h (1 Bft)
02.09.2026 19:10 21,6 °C 58 % 1020,7 hPa 0,0 mm 1,0 km/h (0 Bft) W-NW 294 ° 13,0 °C 21,6 °C 4,8 km/h (1 Bft)
02.09.2026 19:05 21,5 °C 58 % 1020,7 hPa 0,0 mm 0,5 km/h (0 Bft) W-NW 294 ° 12,9 °C 21,5 °C 3,2 km/h (1 Bft)
02.09.2026 19:00 21,4 °C 58 % 1020,7 hPa 0,0 mm 1,3 km/h (1 Bft) W-NW 293 ° 12,8 °C 21,4 °C 4,8 km/h (1 Bft)
02.09.2026 18:55 21,5 °C 57 % 1020,7 hPa 0,0 mm 1,6 km/h (1 Bft) W-NW 293 ° 12,6 °C 21,5 °C 6,4 km/h (2 Bft)
02.09.2026 18:50 21,6 °C 56 % 1020,7 hPa 0,0 mm 2,7 km/h (1 Bft) W-NW 294 ° 12,4 °C 21,6 °C 6,4 km/h (2 Bft)
02.09.2026 18:45 21,7 °C 57 % 1020,6 hPa 0,0 mm 3,1 km/h (1 Bft) W-NW 294 ° 12,8 °C 21,7 °C 6,4 km/h (2 Bft)
02.09.2026 18:40 21,8 °C 56 % 1020,7 hPa 0,0 mm 2,5 km/h (1 Bft) W-NW 297 ° 12,6 °C 21,8 °C 6,4 km/h (2 Bft)
02.09.2026 18:35 21,8 °C 55 % 1020,6 hPa 0,0 mm 1,6 km/h (1 Bft) W-NW 298 ° 12,4 °C 21,8 °C 6,4 km/h (2 Bft)
02.09.2026 18:30 22,0 °C 56 % 1020,7 hPa 0,0 mm 2,5 km/h (1 Bft) W-NW 298 ° 12,8 °C 22,0 °C 6,4 km/h (2 Bft)
02.09.2026 18:25 22,2 °C 56 % 1020,8 hPa 0,0 mm 1,8 km/h (1 Bft) W-NW 298 ° 13,0 °C 22,2 °C 4,8 km/h (1 Bft)
02.09.2026 18:20 22,3 °C 56 % 1020,8 hPa 0,0 mm 4,5 km/h (1 Bft) W-NW 297 ° 13,1 °C 22,3 °C 12,9 km/h (3 Bft)
02.09.2026 18:15 22,4 °C 55 % 1020,8 hPa 0,0 mm 2,4 km/h (1 Bft) N-NW 329 ° 12,9 °C 22,4 °C 6,4 km/h (2 Bft)
02.09.2026 18:10 22,5 °C 54 % 1020,9 hPa 0,0 mm 2,3 km/h (1 Bft) N-NW 339 ° 12,7 °C 22,5 °C 6,4 km/h (2 Bft)
02.09.2026 18:05 22,4 °C 55 % 1020,9 hPa 0,0 mm 2,4 km/h (1 Bft) N-NW 340 ° 12,9 °C 22,4 °C 6,4 km/h (2 Bft)
02.09.2026 18:00 22,3 °C 56 % 1020,9 hPa 0,0 mm 2,0 km/h (1 Bft) W-NW 296 ° 13,1 °C 22,3 °C 6,4 km/h (2 Bft)
02.09.2026 17:55 22,2 °C 56 % 1020,8 hPa 0,0 mm 2,0 km/h (1 Bft) W-NW 294 ° 13,0 °C 22,2 °C 6,4 km/h (2 Bft)
02.09.2026 17:50 22,3 °C 55 % 1020,9 hPa 0,0 mm 1,3 km/h (1 Bft) W-NW 294 ° 12,8 °C 22,3 °C 4,8 km/h (1 Bft)
02.09.2026 17:45 22,4 °C 53 % 1020,9 hPa 0,0 mm 2,9 km/h (1 Bft) W-NW 293 ° 12,3 °C 22,4 °C 8,0 km/h (2 Bft)
02.09.2026 17:40 22,7 °C 54 % 1021,0 hPa 0,0 mm 1,6 km/h (1 Bft) NW 319 ° 12,9 °C 22,7 °C 6,4 km/h (2 Bft)
02.09.2026 17:35 23,0 °C 53 % 1021,0 hPa 0,0 mm 3,3 km/h (1 Bft) NW 317 ° 12,9 °C 23,0 °C 8,0 km/h (2 Bft)
02.09.2026 17:30 23,1 °C 53 % 1020,9 hPa 0,0 mm 2,7 km/h (1 Bft) N-NW 344 ° 13,0 °C 23,1 °C 6,4 km/h (2 Bft)
02.09.2026 17:25 22,9 °C 53 % 1021,0 hPa 0,0 mm 3,8 km/h (1 Bft) N-NW 342 ° 12,8 °C 22,9 °C 9,7 km/h (2 Bft)
02.09.2026 17:20 22,8 °C 54 % 1021,0 hPa 0,0 mm 4,2 km/h (1 Bft) N 5 ° 13,0 °C 22,8 °C 14,5 km/h (3 Bft)
02.09.2026 17:15 22,8 °C 52 % 1021,0 hPa 0,0 mm 2,2 km/h (1 Bft) W-NW 294 ° 12,4 °C 22,8 °C 6,4 km/h (2 Bft)
02.09.2026 17:10 22,8 °C 53 % 1021,1 hPa 0,0 mm 5,3 km/h (1 Bft) W-NW 282 ° 12,7 °C 22,8 °C 11,3 km/h (2 Bft)
02.09.2026 17:05 22,7 °C 56 % 1021,0 hPa 0,0 mm 3,9 km/h (1 Bft) W 267 ° 13,5 °C 22,7 °C 14,5 km/h (3 Bft)
02.09.2026 17:00 22,5 °C 56 % 1021,0 hPa 0,0 mm 0,0 km/h (0 Bft) N-NO 23 ° 13,3 °C 22,5 °C 0,0 km/h (0 Bft)
02.09.2026 16:55 22,3 °C 55 % 1021,1 hPa 0,0 mm 1,6 km/h (1 Bft) N-NO 23 ° 12,8 °C 22,3 °C 8,0 km/h (2 Bft)
02.09.2026 16:50 22,5 °C 55 % 1021,2 hPa 0,0 mm 3,5 km/h (1 Bft) N-NO 21 ° 13,0 °C 22,5 °C 6,4 km/h (2 Bft)
02.09.2026 16:45 22,3 °C 55 % 1021,2 hPa 0,0 mm 3,9 km/h (1 Bft) NW 321 ° 12,8 °C 22,3 °C 8,0 km/h (2 Bft)
02.09.2026 16:40 22,0 °C 57 % 1021,1 hPa 0,0 mm 4,1 km/h (1 Bft) W-NW 292 ° 13,1 °C 22,0 °C 9,7 km/h (2 Bft)
02.09.2026 16:35 21,8 °C 56 % 1021,3 hPa 0,0 mm 3,9 km/h (1 Bft) N 5 ° 12,6 °C 21,8 °C 9,7 km/h (2 Bft)
02.09.2026 16:30 21,8 °C 56 % 1021,2 hPa 0,0 mm 2,8 km/h (1 Bft) N 10 ° 12,6 °C 21,8 °C 6,4 km/h (2 Bft)
02.09.2026 16:25 21,7 °C 57 % 1021,2 hPa 0,0 mm 1,7 km/h (1 Bft) N 355 ° 12,8 °C 21,7 °C 8,0 km/h (2 Bft)
02.09.2026 16:20 21,5 °C 57 % 1021,3 hPa 0,0 mm 1,1 km/h (1 Bft) N-NW 342 ° 12,6 °C 21,5 °C 4,8 km/h (1 Bft)
02.09.2026 16:15 21,5 °C 59 % 1021,2 hPa 0,0 mm 2,7 km/h (1 Bft) N-NW 341 ° 13,1 °C 21,5 °C 8,0 km/h (2 Bft)
02.09.2026 16:10 21,5 °C 57 % 1021,2 hPa 0,0 mm 5,4 km/h (1 Bft) N-NW 342 ° 12,6 °C 21,5 °C 14,5 km/h (3 Bft)
02.09.2026 16:05 21,6 °C 56 % 1021,2 hPa 0,0 mm 4,3 km/h (1 Bft) N-NO 22 ° 12,4 °C 21,6 °C 9,7 km/h (2 Bft)
02.09.2026 16:00 21,7 °C 56 % 1021,3 hPa 0,0 mm 5,3 km/h (1 Bft) NO 35 ° 12,5 °C 21,7 °C 14,5 km/h (3 Bft)
02.09.2026 15:55 21,8 °C 57 % 1021,3 hPa 0,0 mm 6,4 km/h (2 Bft) N 5 ° 12,9 °C 21,8 °C 16,1 km/h (3 Bft)
02.09.2026 15:50 21,8 °C 60 % 1021,3 hPa 0,0 mm 3,5 km/h (1 Bft) W-NW 303 ° 13,7 °C 21,8 °C 8,0 km/h (2 Bft)
02.09.2026 15:45 21,7 °C 56 % 1021,3 hPa 0,0 mm 3,3 km/h (1 Bft) N 5 ° 12,5 °C 21,7 °C 9,7 km/h (2 Bft)
02.09.2026 15:40 21,7 °C 59 % 1021,3 hPa 0,0 mm 3,9 km/h (1 Bft) N-NW 329 ° 13,3 °C 21,7 °C 9,7 km/h (2 Bft)
02.09.2026 15:35 21,7 °C 57 % 1021,2 hPa 0,0 mm 4,5 km/h (1 Bft) NW 318 ° 12,8 °C 21,7 °C 11,3 km/h (2 Bft)
02.09.2026 15:30 21,8 °C 56 % 1021,3 hPa 0,0 mm 4,5 km/h (1 Bft) N 350 ° 12,6 °C 21,8 °C 12,9 km/h (3 Bft)
02.09.2026 15:25 21,8 °C 57 % 1021,3 hPa 0,0 mm 4,8 km/h (1 Bft) N-NW 327 ° 12,9 °C 21,8 °C 14,5 km/h (3 Bft)
02.09.2026 15:20 21,8 °C 58 % 1021,3 hPa 0,0 mm 5,3 km/h (1 Bft) NW 304 ° 13,2 °C 21,8 °C 14,5 km/h (3 Bft)
02.09.2026 15:15 21,6 °C 58 % 1021,3 hPa 0,0 mm 4,5 km/h (1 Bft) NW 306 ° 13,0 °C 21,6 °C 11,3 km/h (2 Bft)
02.09.2026 15:10 21,4 °C 57 % 1021,3 hPa 0,0 mm 5,9 km/h (2 Bft) N 9 ° 12,5 °C 21,4 °C 12,9 km/h (3 Bft)
02.09.2026 15:05 21,5 °C 56 % 1021,3 hPa 0,0 mm 6,3 km/h (2 Bft) N-NO 23 ° 12,3 °C 21,5 °C 16,1 km/h (3 Bft)
02.09.2026 15:00 21,5 °C 57 % 1021,3 hPa 0,0 mm 3,6 km/h (1 Bft) N-NW 336 ° 12,6 °C 21,5 °C 12,9 km/h (3 Bft)
02.09.2026 14:55 21,4 °C 57 % 1021,4 hPa 0,0 mm 4,5 km/h (1 Bft) NW 314 ° 12,5 °C 21,4 °C 12,9 km/h (3 Bft)
02.09.2026 14:50 21,4 °C 57 % 1021,4 hPa 0,0 mm 3,3 km/h (1 Bft) NW 325 ° 12,5 °C 21,4 °C 6,4 km/h (2 Bft)
02.09.2026 14:45 21,3 °C 57 % 1021,4 hPa 0,0 mm 4,0 km/h (1 Bft) NW 321 ° 12,4 °C 21,3 °C 9,7 km/h (2 Bft)
02.09.2026 14:40 21,4 °C 57 % 1021,4 hPa 0,0 mm 4,3 km/h (1 Bft) N 355 ° 12,5 °C 21,4 °C 12,9 km/h (3 Bft)
02.09.2026 14:35 21,4 °C 58 % 1021,4 hPa 0,0 mm 4,1 km/h (1 Bft) N-NO 13 ° 12,8 °C 21,4 °C 11,3 km/h (2 Bft)
02.09.2026 14:30 21,4 °C 57 % 1021,6 hPa 0,0 mm 5,0 km/h (1 Bft) N-NW 347 ° 12,5 °C 21,4 °C 9,7 km/h (2 Bft)
02.09.2026 14:25 21,6 °C 57 % 1021,6 hPa 0,0 mm 6,5 km/h (2 Bft) W-NW 296 ° 12,7 °C 21,6 °C 14,5 km/h (3 Bft)
02.09.2026 14:20 21,6 °C 56 % 1021,5 hPa 0,0 mm 5,8 km/h (2 Bft) N-NW 333 ° 12,4 °C 21,6 °C 14,5 km/h (3 Bft)
02.09.2026 14:15 21,7 °C 57 % 1021,5 hPa 0,0 mm 5,5 km/h (1 Bft) N 351 ° 12,8 °C 21,7 °C 14,5 km/h (3 Bft)
02.09.2026 14:10 21,7 °C 54 % 1021,5 hPa 0,0 mm 4,7 km/h (1 Bft) W-NW 301 ° 12,0 °C 21,7 °C 14,5 km/h (3 Bft)
02.09.2026 14:05 21,8 °C 54 % 1021,5 hPa 0,0 mm 3,9 km/h (1 Bft) W-NW 296 ° 12,1 °C 21,8 °C 11,3 km/h (2 Bft)
02.09.2026 14:00 21,8 °C 54 % 1021,4 hPa 0,0 mm 5,1 km/h (1 Bft) N-NW 330 ° 12,1 °C 21,8 °C 14,5 km/h (3 Bft)
02.09.2026 13:55 21,8 °C 54 % 1021,4 hPa 0,0 mm 7,3 km/h (2 Bft) NW 324 ° 12,1 °C 21,5 °C 19,3 km/h (3 Bft)
02.09.2026 13:50 22,0 °C 53 % 1021,5 hPa 0,0 mm 4,9 km/h (1 Bft) N 351 ° 12,0 °C 22,0 °C 14,5 km/h (3 Bft)
02.09.2026 13:45 22,0 °C 55 % 1021,5 hPa 0,0 mm 5,9 km/h (2 Bft) NW 306 ° 12,5 °C 22,0 °C 16,1 km/h (3 Bft)
02.09.2026 13:40 21,9 °C 55 % 1021,4 hPa 0,0 mm 6,5 km/h (2 Bft) W-NW 295 ° 12,4 °C 21,9 °C 16,1 km/h (3 Bft)
02.09.2026 13:35 21,6 °C 55 % 1021,5 hPa 0,0 mm 5,2 km/h (1 Bft) NO 34 ° 12,2 °C 21,6 °C 11,3 km/h (2 Bft)
02.09.2026 13:30 21,5 °C 54 % 1021,5 hPa 0,0 mm 5,4 km/h (1 Bft) NW 325 ° 11,8 °C 21,5 °C 16,1 km/h (3 Bft)
02.09.2026 13:25 21,7 °C 54 % 1021,4 hPa 0,0 mm 7,0 km/h (2 Bft) W 277 ° 12,0 °C 21,5 °C 16,1 km/h (3 Bft)
02.09.2026 13:20 21,8 °C 56 % 1021,5 hPa 0,0 mm 4,1 km/h (1 Bft) W 277 ° 12,6 °C 21,8 °C 12,9 km/h (3 Bft)
02.09.2026 13:15 21,4 °C 56 % 1021,6 hPa 0,0 mm 4,0 km/h (1 Bft) W-NW 292 ° 12,3 °C 21,4 °C 11,3 km/h (2 Bft)
02.09.2026 13:10 21,2 °C 56 % 1021,6 hPa 0,0 mm 5,9 km/h (2 Bft) W 271 ° 12,1 °C 21,2 °C 12,9 km/h (3 Bft)
02.09.2026 13:05 21,0 °C 55 % 1021,5 hPa 0,0 mm 6,5 km/h (2 Bft) NW 310 ° 11,6 °C 21,0 °C 14,5 km/h (3 Bft)
02.09.2026 13:00 21,0 °C 56 % 1021,6 hPa 0,0 mm 8,7 km/h (2 Bft) NW 326 ° 11,9 °C 20,2 °C 16,1 km/h (3 Bft)
_ Min-Zeit 01:00 17:15 06:25 - 17:00 - - 00:45 01:00 17:00
Minimum _ 15,8 °C 52 % 1018,9 hPa - 0,0 km/h (0 Bft) - - 11,5 °C 15,8 °C 0,0 km/h (0 Bft)
_ Max-Zeit 17:30 01:00 21:30 13:00 11:40 - - 11:55 17:30 11:40
Maximum _ 23,1 °C 76 % 1021,7 hPa 0,0 mm 12,5 km/h
W-SW (3 Bft)
- - 16,1 °C 23,1 °C 27,4 km/h
W (4 Bft)
Durchschnitt _ 19,4 °C 65 % 1020,5 hPa #0,0 mm 3,7 km/h (1 Bft) SW - 12,5 °C 19,3 °C 9,0 km/h (2 Bft)